createdAt,value
2022-08-06T00:00:02.758Z,26.62
2022-08-06T00:02:59.129Z,26.62
2022-08-06T00:06:02.164Z,26.64
2022-08-06T00:09:06.047Z,26.65
2022-08-06T00:12:10.567Z,26.67
2022-08-06T00:15:14.897Z,26.61
2022-08-06T00:18:18.322Z,26.52
2022-08-06T00:21:41.795Z,26.59
2022-08-06T00:24:44.601Z,26.46
2022-08-06T00:27:51.534Z,26.55
2022-08-06T00:30:55.571Z,26.44
2022-08-06T00:34:03.962Z,26.51
2022-08-06T00:37:18.881Z,26.48
2022-08-06T00:40:24.197Z,26.61
2022-08-06T00:43:35.416Z,26.66
2022-08-06T00:46:45.092Z,26.73
2022-08-06T00:49:51.091Z,26.78
2022-08-06T00:52:54.220Z,26.76
2022-08-06T00:55:59.837Z,26.81
2022-08-06T00:59:04.949Z,26.81
2022-08-06T01:02:14.786Z,26.73
2022-08-06T01:06:03.680Z,26.72
2022-08-06T01:08:41.726Z,26.69
2022-08-06T01:11:45.671Z,26.66
2022-08-06T01:15:02.515Z,26.55
2022-08-06T01:18:11.762Z,26.54
2022-08-06T01:22:28.339Z,26.59
2022-08-06T01:25:46.597Z,26.60
2022-08-06T01:29:14.261Z,26.54
2022-08-06T01:32:26.751Z,26.70
2022-08-06T01:35:47.392Z,26.64
2022-08-06T01:39:01.321Z,26.69
2022-08-06T01:42:06.685Z,26.57
2022-08-06T01:45:13.231Z,26.58
2022-08-06T01:48:19.542Z,26.56
2022-08-06T01:52:14.308Z,26.58
2022-08-06T01:54:59.538Z,26.58
2022-08-06T01:58:08.113Z,26.55
2022-08-06T02:01:23.878Z,26.51
2022-08-06T02:04:29.652Z,26.45
2022-08-06T02:08:38.863Z,26.46
2022-08-06T02:11:01.032Z,26.39
2022-08-06T02:14:28.159Z,26.32
2022-08-06T02:18:04.433Z,26.27
2022-08-06T02:21:19.118Z,26.27
2022-08-06T02:24:24.312Z,26.22
2022-08-06T02:27:43.390Z,26.21
2022-08-06T02:30:55.627Z,26.21
2022-08-06T02:34:02.271Z,26.25
2022-08-06T02:37:22.510Z,26.23
2022-08-06T02:40:48.971Z,26.07
2022-08-06T02:43:58.169Z,25.75
2022-08-06T02:47:17.216Z,25.69
2022-08-06T02:50:26.962Z,25.69
2022-08-06T02:54:02.756Z,25.76
2022-08-06T02:57:04.210Z,25.72
2022-08-06T03:00:11.249Z,25.75
2022-08-06T03:03:21.288Z,25.82
2022-08-06T03:06:26.824Z,25.33
2022-08-06T03:09:32.783Z,24.96
2022-08-06T03:12:37.560Z,24.62
2022-08-06T03:15:59.975Z,24.09
2022-08-06T03:19:55.236Z,24.10
2022-08-06T03:22:36.207Z,23.88
2022-08-06T03:25:42.971Z,23.65
2022-08-06T03:28:46.764Z,23.42
2022-08-06T03:31:58.338Z,23.35
2022-08-06T03:35:17.131Z,23.33
2022-08-06T03:38:40.055Z,23.17
2022-08-06T03:42:08.466Z,22.88
2022-08-06T03:45:07.972Z,22.89
2022-08-06T03:48:35.838Z,22.91
2022-08-06T03:51:51.374Z,23.00
2022-08-06T03:55:04.376Z,23.05
2022-08-06T03:58:10.869Z,22.93
2022-08-06T04:01:20.134Z,22.95
2022-08-06T04:04:27.405Z,22.96
2022-08-06T04:07:53.607Z,22.99
2022-08-06T04:10:58.351Z,23.08
2022-08-06T04:14:07.139Z,23.18
2022-08-06T04:17:12.204Z,23.15
2022-08-06T04:20:19.628Z,23.12
2022-08-06T04:23:40.784Z,23.18
2022-08-06T04:26:45.565Z,23.20
2022-08-06T04:29:56.534Z,23.00
2022-08-06T04:33:06.887Z,22.89
2022-08-06T04:36:23.995Z,22.46
2022-08-06T04:39:49.426Z,22.55
2022-08-06T04:42:53.190Z,22.70
2022-08-06T04:46:16.508Z,22.51
2022-08-06T04:49:22.150Z,22.50
2022-08-06T04:52:42.850Z,22.53
2022-08-06T04:56:03.044Z,22.33
2022-08-06T04:59:07.842Z,22.67
2022-08-06T05:02:12.228Z,22.00
2022-08-06T05:05:17.747Z,22.53
2022-08-06T05:08:27.899Z,22.42
2022-08-06T05:11:34.865Z,22.43
2022-08-06T05:15:03.626Z,22.63
2022-08-06T05:19:16.796Z,22.38
2022-08-06T05:22:10.944Z,22.33
2022-08-06T05:25:12.045Z,22.17
2022-08-06T05:28:19.585Z,22.42
2022-08-06T05:31:46.218Z,22.75
2022-08-06T05:34:51.928Z,22.95
2022-08-06T05:38:02.259Z,23.03
2022-08-06T05:41:10.217Z,23.09
2022-08-06T05:44:13.528Z,23.37
2022-08-06T05:47:22.887Z,23.53
2022-08-06T05:50:29.383Z,23.11
2022-08-06T05:54:03.948Z,23.33
2022-08-06T05:57:06.992Z,23.22
2022-08-06T06:00:32.128Z,23.48
2022-08-06T06:03:39.958Z,23.29
2022-08-06T06:06:43.416Z,23.25
2022-08-06T06:09:56.387Z,22.98
2022-08-06T06:13:25.230Z,23.46
2022-08-06T06:17:07.915Z,23.51
2022-08-06T06:20:58.000Z,23.77
2022-08-06T06:23:55.861Z,23.95
2022-08-06T06:27:56.249Z,24.16
2022-08-06T06:32:04.359Z,24.20
2022-08-06T06:35:20.959Z,24.73
2022-08-06T06:39:16.226Z,24.53
2022-08-06T06:42:32.679Z,24.76
2022-08-06T06:46:38.704Z,24.42
2022-08-06T06:50:03.628Z,24.92
2022-08-06T06:53:11.517Z,25.28
2022-08-06T06:56:18.069Z,25.63
2022-08-06T06:59:26.353Z,25.93
2022-08-06T07:02:49.859Z,25.50
2022-08-06T07:06:05.936Z,25.63
2022-08-06T07:09:39.259Z,25.58
2022-08-06T07:12:45.933Z,25.59
2022-08-06T07:15:54.928Z,25.59
2022-08-06T07:18:58.665Z,25.63
2022-08-06T07:22:02.380Z,25.81
2022-08-06T07:25:08.186Z,26.47
2022-08-06T07:28:20.731Z,26.59
2022-08-06T07:31:27.357Z,26.75
2022-08-06T07:34:40.408Z,26.84
2022-08-06T07:37:51.350Z,26.87
2022-08-06T07:40:56.511Z,27.03
2022-08-06T07:44:03.066Z,27.29
2022-08-06T07:47:24.682Z,27.34
2022-08-06T07:50:29.997Z,27.87
2022-08-06T07:53:52.222Z,28.17
2022-08-06T07:57:01.561Z,28.38
2022-08-06T08:00:06.342Z,28.24
2022-08-06T08:03:43.169Z,28.51
2022-08-06T08:07:01.601Z,28.58
2022-08-06T08:10:05.536Z,28.71
2022-08-06T08:13:09.024Z,28.82
2022-08-06T08:16:20.345Z,28.91
2022-08-06T08:19:35.288Z,28.75
2022-08-06T08:22:48.455Z,29.16
2022-08-06T08:25:53.467Z,29.04
2022-08-06T08:28:57.787Z,29.20
2022-08-06T08:32:01.937Z,29.21
2022-08-06T08:35:09.105Z,29.43
2022-08-06T08:38:11.918Z,29.60
2022-08-06T08:41:22.091Z,29.84
2022-08-06T08:44:29.372Z,30.16
2022-08-06T08:47:46.912Z,30.07
2022-08-06T08:50:58.497Z,30.01
2022-08-06T08:54:03.174Z,30.23
2022-08-06T08:58:40.633Z,30.18
2022-08-06T09:00:33.471Z,30.29
2022-08-06T09:03:47.392Z,30.55
2022-08-06T09:06:54.565Z,30.70
2022-08-06T09:10:01.477Z,30.74
2022-08-06T09:13:22.708Z,30.61
2022-08-06T09:16:32.143Z,30.95
2022-08-06T09:19:37.576Z,31.03
2022-08-06T09:22:45.503Z,31.21
2022-08-06T09:25:52.415Z,31.29
2022-08-06T09:28:55.571Z,31.29
2022-08-06T09:32:00.264Z,31.35
2022-08-06T09:35:04.898Z,31.31
2022-08-06T09:38:20.643Z,31.54
2022-08-06T09:41:25.588Z,31.64
2022-08-06T09:44:35.223Z,31.70
2022-08-06T09:47:40.729Z,31.66
2022-08-06T09:50:46.936Z,31.95
2022-08-06T09:54:21.939Z,31.88
2022-08-06T09:57:31.543Z,32.08
2022-08-06T10:00:39.080Z,32.12
2022-08-06T10:04:02.086Z,32.22
2022-08-06T10:07:06.202Z,32.18
2022-08-06T10:10:11.434Z,32.65
2022-08-06T10:13:26.299Z,32.61
2022-08-06T10:16:31.078Z,32.25
2022-08-06T10:19:36.180Z,32.38
2022-08-06T10:22:51.735Z,32.80
2022-08-06T10:25:54.510Z,32.62
2022-08-06T10:29:07.505Z,32.96
2022-08-06T10:32:17.667Z,33.13
2022-08-06T10:35:25.498Z,32.67
2022-08-06T10:38:34.688Z,33.14
2022-08-06T10:42:01.187Z,33.00
2022-08-06T10:45:12.581Z,32.76
2022-08-06T10:48:59.269Z,32.75
2022-08-06T10:51:56.065Z,32.90
2022-08-06T10:55:02.056Z,32.81
2022-08-06T10:58:05.349Z,32.77
2022-08-06T11:01:09.754Z,32.58
2022-08-06T11:04:35.764Z,32.71
2022-08-06T11:08:11.883Z,32.58
2022-08-06T11:12:06.272Z,32.70
2022-08-06T11:15:11.650Z,32.34
2022-08-06T11:18:16.196Z,32.18
2022-08-06T11:22:01.845Z,32.20
2022-08-06T11:25:14.103Z,32.05
2022-08-06T11:28:29.860Z,32.23
2022-08-06T11:31:37.188Z,32.76
2022-08-06T11:34:51.486Z,32.71
2022-08-06T11:38:03.429Z,32.25
2022-08-06T11:41:54.233Z,32.28
2022-08-06T11:45:06.010Z,32.53
2022-08-06T11:48:17.472Z,32.57
2022-08-06T11:52:03.895Z,32.47
2022-08-06T11:55:22.622Z,31.94
2022-08-06T11:58:26.927Z,31.69
2022-08-06T12:01:46.917Z,31.69
2022-08-06T12:04:51.287Z,31.77
2022-08-06T12:08:22.095Z,32.51
2022-08-06T12:11:42.621Z,31.92
2022-08-06T12:14:50.791Z,32.93
2022-08-06T12:18:18.701Z,31.99
2022-08-06T12:21:25.199Z,32.80
2022-08-06T12:24:45.449Z,32.64
2022-08-06T12:27:57.508Z,32.61
2022-08-06T12:31:00.618Z,32.62
2022-08-06T12:34:27.755Z,33.04
2022-08-06T12:37:47.953Z,34.00
2022-08-06T12:41:01.553Z,33.42
2022-08-06T12:44:20.185Z,33.04
2022-08-06T12:48:03.613Z,33.54
2022-08-06T12:51:11.072Z,33.09
2022-08-06T12:54:25.727Z,33.59
2022-08-06T12:57:58.993Z,33.49
2022-08-06T13:00:56.158Z,33.80
2022-08-06T13:04:06.635Z,34.56
2022-08-06T13:07:14.863Z,34.42
2022-08-06T13:10:35.299Z,35.01
2022-08-06T13:14:13.319Z,33.53
2022-08-06T13:17:18.930Z,32.99
2022-08-06T13:20:47.752Z,31.37
2022-08-06T13:23:54.238Z,31.17
2022-08-06T13:26:58.187Z,31.50
2022-08-06T13:30:32.745Z,32.13
2022-08-06T13:33:32.484Z,32.30
2022-08-06T13:36:59.333Z,32.05
2022-08-06T13:40:04.149Z,32.74
2022-08-06T13:43:09.168Z,33.42
2022-08-06T13:46:16.946Z,34.63
2022-08-06T13:49:23.045Z,34.69
2022-08-06T13:52:29.010Z,34.54
2022-08-06T13:56:02.198Z,34.31
2022-08-06T13:58:56.005Z,33.36
2022-08-06T14:02:02.681Z,32.95
2022-08-06T14:05:14.402Z,32.91
2022-08-06T14:08:34.255Z,33.58
2022-08-06T14:11:39.165Z,33.54
2022-08-06T14:14:42.020Z,31.31
2022-08-06T14:17:51.338Z,31.45
2022-08-06T14:20:54.678Z,31.32
2022-08-06T14:24:00.420Z,30.75
2022-08-06T14:27:15.893Z,30.82
2022-08-06T14:30:31.148Z,30.89
2022-08-06T14:33:36.722Z,31.13
2022-08-06T14:36:42.031Z,32.28
2022-08-06T14:39:59.609Z,31.37
2022-08-06T14:43:22.390Z,30.02
2022-08-06T14:46:31.436Z,30.06
2022-08-06T14:49:51.561Z,29.59
2022-08-06T14:52:54.731Z,29.98
2022-08-06T14:56:08.344Z,29.41
2022-08-06T14:59:11.508Z,29.12
2022-08-06T15:02:15.146Z,29.39
2022-08-06T15:05:24.603Z,29.08
2022-08-06T15:08:48.775Z,29.46
2022-08-06T15:11:59.492Z,28.99
2022-08-06T15:15:05.729Z,28.66
2022-08-06T15:18:40.548Z,28.84
2022-08-06T15:21:43.841Z,28.39
2022-08-06T15:24:54.376Z,28.31
2022-08-06T15:27:58.178Z,28.51
2022-08-06T15:31:02.607Z,28.02
2022-08-06T15:34:12.237Z,27.50
2022-08-06T15:37:52.522Z,27.21
2022-08-06T15:40:42.710Z,27.27
2022-08-06T15:43:51.101Z,27.79
2022-08-06T15:46:55.500Z,28.00
2022-08-06T15:50:03.615Z,27.69
2022-08-06T15:53:22.738Z,27.61
2022-08-06T15:56:33.781Z,27.27
2022-08-06T15:59:52.851Z,27.56
2022-08-06T16:02:55.775Z,27.52
2022-08-06T16:06:10.683Z,27.85
2022-08-06T16:09:27.744Z,29.02
2022-08-06T16:12:31.494Z,29.31
2022-08-06T16:15:37.363Z,28.98
2022-08-06T16:18:49.197Z,28.38
2022-08-06T16:21:55.281Z,28.65
2022-08-06T16:25:00.013Z,28.66
2022-08-06T16:28:04.252Z,28.78
2022-08-06T16:31:11.190Z,28.90
2022-08-06T16:34:25.212Z,29.30
2022-08-06T16:40:56.847Z,30.62
2022-08-06T16:44:02.442Z,29.48
2022-08-06T16:50:36.890Z,29.79
2022-08-06T16:54:13.676Z,28.72
2022-08-06T16:57:03.457Z,28.27
2022-08-06T17:00:15.067Z,29.41
2022-08-06T17:03:43.667Z,28.91
2022-08-06T17:06:48.983Z,28.67
2022-08-06T17:09:52.389Z,27.56
2022-08-06T17:13:09.404Z,27.42
2022-08-06T17:16:13.118Z,27.60
2022-08-06T17:19:17.785Z,26.86
2022-08-06T17:22:22.566Z,27.10
2022-08-06T17:25:51.217Z,26.91
2022-08-06T17:28:51.590Z,27.40
2022-08-06T17:31:58.984Z,26.76
2022-08-06T17:38:27.866Z,26.24
2022-08-06T17:41:46.269Z,25.95
2022-08-06T17:44:52.672Z,25.60
2022-08-06T17:47:58.823Z,26.08
2022-08-06T17:51:09.638Z,25.96
2022-08-06T17:54:44.591Z,25.58
2022-08-06T17:58:32.923Z,25.18
2022-08-06T18:01:06.153Z,25.10
2022-08-06T18:04:21.721Z,25.01
2022-08-06T18:08:08.078Z,24.86
2022-08-06T18:10:51.301Z,24.68
2022-08-06T18:13:54.965Z,24.96
2022-08-06T18:16:58.112Z,24.40
2022-08-06T18:20:01.778Z,24.22
2022-08-06T18:23:05.237Z,24.21
2022-08-06T18:26:23.139Z,24.18
2022-08-06T18:29:59.265Z,24.19
2022-08-06T18:32:57.018Z,24.03
2022-08-06T18:36:06.736Z,24.05
2022-08-06T18:39:13.128Z,23.88
2022-08-06T18:42:19.072Z,23.85
2022-08-06T18:45:21.978Z,23.80
2022-08-06T18:48:27.209Z,23.80
2022-08-06T18:51:34.108Z,23.55
2022-08-06T18:54:42.028Z,23.45
2022-08-06T18:58:04.531Z,23.40
2022-08-06T19:01:20.523Z,23.24
2022-08-06T19:04:28.539Z,23.01
2022-08-06T19:07:40.113Z,23.04
2022-08-06T19:10:43.708Z,22.72
2022-08-06T19:14:16.925Z,22.65
2022-08-06T19:17:22.686Z,22.52
2022-08-06T19:20:45.591Z,22.52
2022-08-06T19:24:02.971Z,22.34
2022-08-06T19:27:08.623Z,22.32
2022-08-06T19:30:40.966Z,22.34
2022-08-06T19:33:36.480Z,22.18
2022-08-06T19:36:40.905Z,22.27
2022-08-06T19:39:53.394Z,22.21
2022-08-06T19:44:26.626Z,22.13
2022-08-06T19:46:34.499Z,21.95
2022-08-06T19:49:41.155Z,21.92
2022-08-06T19:52:48.675Z,21.78
2022-08-06T19:56:06.896Z,21.60
2022-08-06T20:00:55.249Z,21.52
2022-08-06T20:02:35.272Z,21.59
2022-08-06T20:06:19.817Z,21.56
2022-08-06T20:09:27.238Z,21.70
2022-08-06T20:12:38.810Z,21.41
2022-08-06T20:15:46.429Z,21.51
2022-08-06T20:18:49.963Z,21.35
2022-08-06T20:21:56.784Z,21.45
2022-08-06T20:25:00.010Z,21.32
2022-08-06T20:29:07.842Z,21.30
2022-08-06T20:31:55.232Z,21.14
2022-08-06T20:34:58.396Z,20.94
2022-08-06T20:38:03.179Z,20.88
2022-08-06T20:41:56.590Z,20.88
2022-08-06T20:44:36.270Z,20.94
2022-08-06T20:47:44.408Z,20.90
2022-08-06T20:50:49.928Z,20.82
2022-08-06T20:54:02.122Z,20.58
2022-08-06T20:57:20.990Z,20.55
2022-08-06T21:00:28.470Z,20.69
2022-08-06T21:05:12.733Z,20.47
2022-08-06T21:06:55.011Z,20.45
2022-08-06T21:09:58.093Z,20.37
2022-08-06T21:13:06.377Z,20.45
2022-08-06T21:16:13.730Z,20.36
2022-08-06T21:19:25.535Z,20.21
2022-08-06T21:22:44.810Z,20.17
2022-08-06T21:25:49.228Z,20.27
2022-08-06T21:28:54.864Z,20.13
2022-08-06T21:32:00.041Z,20.15
2022-08-06T21:35:03.930Z,20.04
2022-08-06T21:38:24.048Z,20.05
2022-08-06T21:41:55.600Z,19.98
2022-08-06T21:44:52.264Z,19.94
2022-08-06T21:47:55.646Z,19.92
2022-08-06T21:51:01.112Z,19.81
2022-08-06T21:54:05.106Z,19.80
2022-08-06T21:57:11.791Z,19.73
2022-08-06T22:00:44.881Z,19.42
2022-08-06T22:04:34.926Z,19.38
2022-08-06T22:07:19.386Z,19.31
2022-08-06T22:10:32.414Z,19.27
2022-08-06T22:13:50.917Z,19.23
2022-08-06T22:16:59.316Z,19.11
2022-08-06T22:20:11.419Z,19.18
2022-08-06T22:23:25.772Z,19.26
2022-08-06T22:26:31.784Z,19.16
2022-08-06T22:29:53.789Z,19.18
2022-08-06T22:32:57.703Z,19.38
2022-08-06T22:36:11.680Z,19.27
2022-08-06T22:39:15.956Z,19.27
2022-08-06T22:42:35.492Z,19.33
2022-08-06T22:46:01.172Z,19.19
2022-08-06T22:49:13.041Z,19.10
2022-08-06T22:52:15.981Z,19.08
2022-08-06T22:55:22.490Z,19.00
2022-08-06T22:59:02.780Z,18.96
2022-08-06T23:02:05.962Z,19.08
2022-08-06T23:05:13.974Z,19.04
2022-08-06T23:08:21.030Z,19.17
2022-08-06T23:11:34.534Z,19.20
2022-08-06T23:14:38.925Z,18.97
2022-08-06T23:17:52.399Z,18.89
2022-08-06T23:21:20.528Z,19.13
2022-08-06T23:24:32.790Z,19.28
2022-08-06T23:27:46.346Z,19.13
2022-08-06T23:30:52.938Z,19.11
2022-08-06T23:34:00.072Z,19.09
2022-08-06T23:37:10.753Z,18.85
2022-08-06T23:40:16.305Z,19.03
2022-08-06T23:43:22.779Z,19.16
2022-08-06T23:46:27.979Z,19.13
2022-08-06T23:49:31.866Z,19.14
2022-08-06T23:52:35.098Z,19.16
2022-08-06T23:55:59.204Z,19.16
2022-08-06T23:59:03.333Z,19.06
